Time;durP1;ratioP1;P1;durP2;ratioP2;P2;SDS_P1;SDS_P2;PMS_P1;PMS_P2;Temp;Humidity;BMP_temperature;BMP_pressure;BME280_temperature;BME280_humidity;BME280_pressure;Samples;Min_cycle;Max_cycle;Signal;HPM_P1;HPM_P2
2022/11/24 00:00:48;;;;;;;85.45;33.85;;;;;;;;;;4947681;28;20381;-60
2022/11/24 00:03:13;;;;;;;41.90;17.70;;;;;;;;;;4946714;28;20404;-59
2022/11/24 00:05:39;;;;;;;19.58;10.15;;;;;;;;;;4946721;28;20464;-60
2022/11/24 00:08:04;;;;;;;21.95;10.93;;;;;;;;;;4947604;28;20483;-60
2022/11/24 00:10:30;;;;;;;123.22;43.05;;;;;;;;;;4946936;28;20433;-60
2022/11/24 00:12:55;;;;;;;84.13;29.88;;;;;;;;;;4946568;28;20365;-61
2022/11/24 00:15:21;;;;;;;79.82;29.75;;;;;;;;;;4947588;28;20463;-60
2022/11/24 00:17:46;;;;;;;160.68;58.25;;;;;;;;;;4948266;28;20460;-60
2022/11/24 00:20:12;;;;;;;134.48;49.28;;;;;;;;;;4946636;28;20535;-60
2022/11/24 00:22:37;;;;;;;70.60;28.00;;;;;;;;;;4947262;28;20460;-60
2022/11/24 00:25:03;;;;;;;58.67;23.83;;;;;;;;;;4946914;28;20460;-60
2022/11/24 00:27:29;;;;;;;73.55;34.03;;;;;;;;;;4947117;28;20352;-60
2022/11/24 00:29:54;;;;;;;69.97;28.15;;;;;;;;;;4946604;28;20512;-60
2022/11/24 00:32:20;;;;;;;47.22;21.75;;;;;;;;;;4946161;28;20342;-60
2022/11/24 00:34:46;;;;;;;105.95;38.55;;;;;;;;;;4946425;28;20038;-59
2022/11/24 00:37:11;;;;;;;48.53;19.83;;;;;;;;;;4948295;28;20321;-60
2022/11/24 00:39:37;;;;;;;91.90;32.47;;;;;;;;;;4947414;28;20439;-60
2022/11/24 00:42:02;;;;;;;29.60;13.20;;;;;;;;;;4946699;28;20096;-59
2022/11/24 00:44:28;;;;;;;18.42;9.25;;;;;;;;;;4946429;28;20587;-60
2022/11/24 00:46:53;;;;;;;16.73;8.75;;;;;;;;;;4946347;28;20056;-60
2022/11/24 00:49:19;;;;;;;33.72;14.32;;;;;;;;;;4946512;28;20364;-61
2022/11/24 00:51:45;;;;;;;19.83;9.50;;;;;;;;;;4947803;28;20402;-60
2022/11/24 00:54:10;;;;;;;21.67;9.25;;;;;;;;;;4946644;28;20025;-60
2022/11/24 00:56:36;;;;;;;15.73;8.43;;;;;;;;;;4946343;28;20460;-58
2022/11/24 00:59:02;;;;;;;16.02;7.38;;;;;;;;;;4947881;28;20349;-61
2022/11/24 01:01:29;;;;;;;15.57;8.35;;;;;;;;;;4944859;28;20401;-61
2022/11/24 01:03:57;;;;;;;17.90;8.68;;;;;;;;;;4938884;28;20426;-60
2022/11/24 01:06:26;;;;;;;15.63;7.80;;;;;;;;;;4931128;28;20449;-59
2022/11/24 01:08:52;;;;;;;16.95;8.23;;;;;;;;;;4930769;28;20370;-60
2022/11/24 01:11:23;;;;;;;17.45;8.60;;;;;;;;;;4931375;28;20353;-60
2022/11/24 01:13:54;;;;;;;12.25;7.20;;;;;;;;;;4929870;28;20452;-59
2022/11/24 01:16:24;;;;;;;15.93;8.30;;;;;;;;;;4930044;28;20441;-60
2022/11/24 01:18:50;;;;;;;15.25;9.15;;;;;;;;;;4930288;28;20369;-60
2022/11/24 01:21:17;;;;;;;21.67;12.00;;;;;;;;;;4931551;28;20353;-60
2022/11/24 01:23:42;;;;;;;17.90;9.65;;;;;;;;;;4930239;28;20116;-59
2022/11/24 01:26:13;;;;;;;17.95;8.10;;;;;;;;;;4930094;28;20576;-60
2022/11/24 01:28:38;;;;;;;15.50;7.50;;;;;;;;;;4931720;28;20385;-60
2022/11/24 01:31:06;;;;;;;15.85;8.13;;;;;;;;;;4929762;28;20413;-61
2022/11/24 01:33:33;;;;;;;25.80;10.02;;;;;;;;;;4930120;28;20497;-60
2022/11/24 01:35:58;;;;;;;25.38;10.48;;;;;;;;;;4931399;28;20319;-60
2022/11/24 01:38:25;;;;;;;17.85;9.18;;;;;;;;;;4930361;28;20413;-60
2022/11/24 01:41:16;;;;;;;15.73;7.88;;;;;;;;;;4930217;28;20516;-60
2022/11/24 01:43:43;;;;;;;16.13;7.45;;;;;;;;;;4930620;28;20594;-59
2022/11/24 01:46:20;;;;;;;16.70;7.90;;;;;;;;;;4929548;28;20531;-59
2022/11/24 01:49:07;;;;;;;16.42;8.07;;;;;;;;;;4930130;28;20434;-59
2022/11/24 01:51:36;;;;;;;16.27;8.30;;;;;;;;;;4914688;28;20027;-60
2022/11/24 01:54:32;;;;;;;;;;;;;;;;;;4930128;28;20428;-60
2022/11/24 01:57:16;;;;;;;15.65;8.10;;;;;;;;;;4924586;28;20316;-60
2022/11/24 01:59:45;;;;;;;14.85;8.18;;;;;;;;;;4912447;28;20516;-60
2022/11/24 02:02:11;;;;;;;14.07;7.20;;;;;;;;;;4912130;28;20034;-61
2022/11/24 02:04:37;;;;;;;13.70;7.72;;;;;;;;;;4929803;28;20097;-60
2022/11/24 02:07:05;;;;;;;11.70;6.75;;;;;;;;;;4929602;28;20457;-60
2022/11/24 02:09:58;;;;;;;13.23;7.37;;;;;;;;;;4929489;28;20472;-60
2022/11/24 02:12:26;;;;;;;15.88;8.02;;;;;;;;;;4928499;28;20169;-60
2022/11/24 02:14:53;;;;;;;19.48;8.95;;;;;;;;;;4912009;28;20340;-60
2022/11/24 02:17:18;;;;;;;17.73;8.02;;;;;;;;;;4929323;28;20560;-59
2022/11/24 02:20:00;;;;;;;14.75;7.30;;;;;;;;;;4929503;28;20430;-60
2022/11/24 02:22:57;;;;;;;18.10;8.00;;;;;;;;;;4912908;28;20027;-60
2022/11/24 02:25:35;;;;;;;16.63;7.65;;;;;;;;;;4929010;28;20627;-59
2022/11/24 02:28:05;;;;;;;19.13;8.30;;;;;;;;;;4931613;28;20329;-60
2022/11/24 02:30:31;;;;;;;13.30;7.55;;;;;;;;;;4911670;28;20057;-59
2022/11/24 02:32:57;;;;;;;13.88;7.43;;;;;;;;;;4929157;28;20434;-58
2022/11/24 02:35:26;;;;;;;16.88;7.60;;;;;;;;;;4911958;28;20034;-60
2022/11/24 02:37:51;;;;;;;18.42;8.02;;;;;;;;;;4928810;28;20389;-60
2022/11/24 02:40:24;;;;;;;18.58;8.85;;;;;;;;;;4928567;28;20397;-59
2022/11/24 02:42:56;;;;;;;22.13;8.90;;;;;;;;;;4928416;28;20372;-59
2022/11/24 02:45:23;;;;;;;12.45;7.05;;;;;;;;;;4928981;28;20508;-60
2022/11/24 02:47:48;;;;;;;14.82;8.48;;;;;;;;;;4928972;28;20345;-59
2022/11/24 02:50:14;;;;;;;11.25;6.97;;;;;;;;;;4928751;28;20353;-59
2022/11/24 02:52:40;;;;;;;14.05;6.40;;;;;;;;;;4928732;28;20350;-60
2022/11/24 02:55:06;;;;;;;12.60;6.93;;;;;;;;;;4928367;28;20052;-60
2022/11/24 02:57:31;;;;;;;13.98;7.18;;;;;;;;;;4928232;28;20520;-60
2022/11/24 02:59:57;;;;;;;14.63;7.63;;;;;;;;;;4927928;28;20042;-59
2022/11/24 03:02:22;;;;;;;13.55;6.90;;;;;;;;;;4928876;28;20345;-59
2022/11/24 03:04:48;;;;;;;14.43;7.55;;;;;;;;;;4928649;28;20340;-61
2022/11/24 03:07:13;;;;;;;10.95;6.72;;;;;;;;;;4928453;28;20338;-60
2022/11/24 03:09:39;;;;;;;11.50;6.60;;;;;;;;;;4928182;28;20407;-60
2022/11/24 03:12:05;;;;;;;14.25;6.57;;;;;;;;;;4927559;28;20479;-60
2022/11/24 03:14:31;;;;;;;12.20;6.90;;;;;;;;;;4928868;28;20520;-61
2022/11/24 03:16:56;;;;;;;13.07;7.07;;;;;;;;;;4928761;28;20342;-59
2022/11/24 03:19:22;;;;;;;15.45;7.78;;;;;;;;;;4928810;28;20310;-60
2022/11/24 03:21:47;;;;;;;13.68;7.35;;;;;;;;;;4928212;28;20456;-60
2022/11/24 03:24:13;;;;;;;15.55;7.18;;;;;;;;;;4929089;28;20350;-60
2022/11/24 03:26:38;;;;;;;17.02;7.68;;;;;;;;;;4929443;28;20419;-60
2022/11/24 03:29:04;;;;;;;16.42;7.97;;;;;;;;;;4927783;28;20022;-60
2022/11/24 03:31:29;;;;;;;15.23;7.22;;;;;;;;;;4928194;28;20414;-59
2022/11/24 03:33:55;;;;;;;13.27;6.95;;;;;;;;;;4927999;28;20508;-59
2022/11/24 03:36:20;;;;;;;14.43;7.07;;;;;;;;;;4927684;28;20484;-60
2022/11/24 03:38:46;;;;;;;15.43;7.88;;;;;;;;;;4927999;28;20049;-59
2022/11/24 03:41:12;;;;;;;13.73;7.13;;;;;;;;;;4927569;28;20418;-60
2022/11/24 03:43:37;;;;;;;10.80;6.97;;;;;;;;;;4927318;28;20465;-60
2022/11/24 03:46:03;;;;;;;13.52;7.47;;;;;;;;;;4930116;28;20026;-60
2022/11/24 03:48:28;;;;;;;12.30;7.38;;;;;;;;;;4928206;28;20365;-60
2022/11/24 03:50:57;;;;;;;17.45;7.55;;;;;;;;;;4927871;28;20026;-60
2022/11/24 03:53:25;;;;;;;10.35;5.72;;;;;;;;;;4928072;28;20349;-59
2022/11/24 03:55:51;;;;;;;14.27;5.97;;;;;;;;;;4927846;28;20429;-59
2022/11/24 03:58:17;;;;;;;19.92;9.10;;;;;;;;;;4927232;28;20507;-60
2022/11/24 04:00:43;;;;;;;20.40;10.65;;;;;;;;;;4928033;28;20093;-60
2022/11/24 04:03:08;;;;;;;20.15;8.23;;;;;;;;;;4927948;28;20026;-59
2022/11/24 04:05:35;;;;;;;12.77;7.55;;;;;;;;;;4927801;28;20490;-61
2022/11/24 04:08:02;;;;;;;13.98;7.43;;;;;;;;;;4927843;28;20445;-60
2022/11/24 04:10:29;;;;;;;14.85;7.88;;;;;;;;;;4927195;28;20396;-60
2022/11/24 04:12:54;;;;;;;13.35;6.82;;;;;;;;;;4926565;28;20457;-61
2022/11/24 04:15:21;;;;;;;17.38;7.40;;;;;;;;;;4928096;28;20441;-60
2022/11/24 04:17:49;;;;;;;14.95;8.20;;;;;;;;;;4927742;28;20038;-59
2022/11/24 04:20:15;;;;;;;13.32;6.50;;;;;;;;;;4927511;28;20420;-60
2022/11/24 04:22:41;;;;;;;18.77;7.20;;;;;;;;;;4927343;28;20026;-60
2022/11/24 04:25:08;;;;;;;11.27;6.68;;;;;;;;;;4927120;28;20364;-59
2022/11/24 04:27:36;;;;;;;13.50;6.53;;;;;;;;;;4928904;28;20335;-59
2022/11/24 04:30:06;;;;;;;13.10;7.15;;;;;;;;;;4928058;28;20053;-60
2022/11/24 04:32:31;;;;;;;14.75;6.72;;;;;;;;;;4927547;28;20354;-60
2022/11/24 04:34:57;;;;;;;12.60;7.63;;;;;;;;;;4929319;28;20373;-60
2022/11/24 04:37:22;;;;;;;14.00;7.53;;;;;;;;;;4930885;28;20473;-59
2022/11/24 04:39:48;;;;;;;15.00;6.85;;;;;;;;;;4932004;28;20437;-60
2022/11/24 04:42:14;;;;;;;15.65;6.65;;;;;;;;;;4930756;28;20504;-59
2022/11/24 04:44:39;;;;;;;13.55;6.32;;;;;;;;;;4931521;28;20112;-60
2022/11/24 04:47:05;;;;;;;13.85;7.40;;;;;;;;;;4931031;28;20437;-61
2022/11/24 04:49:31;;;;;;;15.27;7.65;;;;;;;;;;4931874;28;20034;-59
2022/11/24 04:51:57;;;;;;;12.95;6.60;;;;;;;;;;4930871;28;20460;-60
2022/11/24 04:54:23;;;;;;;13.93;5.95;;;;;;;;;;4930457;28;20463;-59
2022/11/24 04:56:52;;;;;;;13.10;7.25;;;;;;;;;;4932498;28;20467;-59
2022/11/24 04:59:18;;;;;;;11.00;5.60;;;;;;;;;;4931268;28;20448;-60
2022/11/24 05:01:46;;;;;;;12.60;6.00;;;;;;;;;;4930956;28;20117;-59
2022/11/24 05:04:13;;;;;;;13.20;6.43;;;;;;;;;;4930849;28;20353;-60
2022/11/24 05:06:39;;;;;;;15.45;7.18;;;;;;;;;;4930287;28;20341;-59
2022/11/24 05:09:07;;;;;;;12.98;6.70;;;;;;;;;;4930142;28;20429;-60
2022/11/24 05:11:33;;;;;;;15.38;6.88;;;;;;;;;;4930055;28;20449;-61
2022/11/24 05:13:59;;;;;;;15.02;7.88;;;;;;;;;;4911790;28;20430;-60
2022/11/24 05:16:25;;;;;;;12.57;6.85;;;;;;;;;;4911332;28;20399;-60
2022/11/24 05:18:50;;;;;;;12.13;6.45;;;;;;;;;;4911612;28;20329;-60
2022/11/24 05:21:16;;;;;;;16.40;6.65;;;;;;;;;;4912474;28;20418;-60
2022/11/24 05:23:42;;;;;;;14.32;7.13;;;;;;;;;;4910732;28;20053;-60
2022/11/24 05:26:07;;;;;;;17.48;7.03;;;;;;;;;;4910787;28;20464;-60
2022/11/24 05:28:33;;;;;;;17.77;7.30;;;;;;;;;;4911594;28;20550;-60
2022/11/24 05:31:02;;;;;;;17.20;8.15;;;;;;;;;;4911149;28;20054;-59
2022/11/24 05:33:32;;;;;;;12.95;7.30;;;;;;;;;;4910951;28;20102;-60
2022/11/24 05:36:05;;;;;;;16.63;8.55;;;;;;;;;;4910536;28;20445;-60
2022/11/24 05:38:32;;;;;;;18.08;7.95;;;;;;;;;;4910481;28;20493;-60
2022/11/24 05:41:04;;;;;;;14.88;8.43;;;;;;;;;;4912243;28;20495;-60
2022/11/24 05:43:30;;;;;;;13.38;7.18;;;;;;;;;;4911015;28;20426;-60
2022/11/24 05:46:00;;;;;;;16.80;9.00;;;;;;;;;;4911176;28;20386;-60
2022/11/24 05:48:25;;;;;;;15.55;8.07;;;;;;;;;;4910534;28;20497;-60
2022/11/24 05:50:55;;;;;;;15.27;7.30;;;;;;;;;;4910381;28;20438;-60
2022/11/24 05:53:21;;;;;;;17.25;9.02;;;;;;;;;;4910071;28;20457;-60
2022/11/24 05:55:47;;;;;;;17.67;7.82;;;;;;;;;;4911411;28;20034;-60
2022/11/24 05:58:12;;;;;;;22.17;8.55;;;;;;;;;;4911113;28;20528;-60
2022/11/24 06:00:38;;;;;;;15.70;7.90;;;;;;;;;;4910458;28;20462;-60
2022/11/24 06:03:04;;;;;;;21.45;8.65;;;;;;;;;;4911846;28;20495;-61
2022/11/24 06:05:29;;;;;;;14.98;8.05;;;;;;;;;;4871205;28;20031;-60
2022/11/24 06:07:55;;;;;;;22.90;9.70;;;;;;;;;;4894522;28;20492;-60
2022/11/24 06:10:22;;;;;;;22.27;8.63;;;;;;;;;;4910254;28;20434;-59
2022/11/24 06:12:48;;;;;;;19.67;8.55;;;;;;;;;;4920581;28;20412;-59
2022/11/24 06:15:14;;;;;;;20.70;9.60;;;;;;;;;;4930051;28;20034;-59
2022/11/24 06:17:40;;;;;;;21.73;9.43;;;;;;;;;;4930029;28;20389;-59
2022/11/24 06:20:08;;;;;;;17.60;8.88;;;;;;;;;;4929270;28;20467;-60
2022/11/24 06:22:34;;;;;;;18.08;8.43;;;;;;;;;;4929945;28;20038;-60
2022/11/24 06:24:59;;;;;;;26.88;13.73;;;;;;;;;;4929244;28;20523;-60
2022/11/24 06:27:25;;;;;;;25.83;12.45;;;;;;;;;;4929481;28;20517;-61
2022/11/24 06:29:50;;;;;;;24.45;9.98;;;;;;;;;;4929370;28;20559;-60
2022/11/24 06:32:16;;;;;;;24.33;10.95;;;;;;;;;;4929536;28;20419;-60
2022/11/24 06:34:42;;;;;;;27.55;11.25;;;;;;;;;;4928965;28;20034;-60
2022/11/24 06:37:07;;;;;;;22.38;9.40;;;;;;;;;;4928921;28;20441;-60
2022/11/24 06:39:33;;;;;;;18.35;8.85;;;;;;;;;;4929299;28;20038;-60
2022/11/24 06:41:58;;;;;;;20.77;10.65;;;;;;;;;;4930730;28;20326;-61
2022/11/24 06:44:24;;;;;;;26.88;11.27;;;;;;;;;;4929008;28;20496;-60
2022/11/24 06:46:49;;;;;;;28.42;10.88;;;;;;;;;;4934435;28;20522;-61
2022/11/24 06:49:15;;;;;;;31.63;11.25;;;;;;;;;;4967471;28;20448;-60
2022/11/24 06:51:41;;;;;;;24.00;10.20;;;;;;;;;;4967294;28;20471;-59
2022/11/24 06:54:08;;;;;;;22.45;9.30;;;;;;;;;;4967583;28;20451;-60
2022/11/24 06:56:34;;;;;;;20.50;9.18;;;;;;;;;;4969034;28;20503;-59
2022/11/24 06:59:00;;;;;;;24.08;10.85;;;;;;;;;;4968088;28;20352;-60
2022/11/24 07:01:28;;;;;;;26.75;9.90;;;;;;;;;;4967324;28;20367;-59
2022/11/24 07:03:55;;;;;;;24.08;10.40;;;;;;;;;;4967073;28;20329;-59
2022/11/24 07:06:24;;;;;;;26.08;10.85;;;;;;;;;;4966620;28;20507;-60
2022/11/24 07:08:50;;;;;;;22.63;11.07;;;;;;;;;;4967444;28;20452;-60
2022/11/24 07:11:22;;;;;;;24.58;10.43;;;;;;;;;;4968658;28;20582;-60
2022/11/24 07:13:50;;;;;;;17.98;10.18;;;;;;;;;;4966764;28;20049;-60
2022/11/24 07:16:21;;;;;;;21.27;10.63;;;;;;;;;;4967711;28;20148;-60
2022/11/24 07:18:50;;;;;;;27.67;12.77;;;;;;;;;;4966861;28;20436;-61
2022/11/24 07:21:16;;;;;;;21.67;10.63;;;;;;;;;;4966672;28;20506;-61
2022/11/24 07:23:42;;;;;;;37.25;16.77;;;;;;;;;;4967199;28;20466;-60
2022/11/24 07:26:09;;;;;;;36.95;17.95;;;;;;;;;;4967242;28;20416;-59
2022/11/24 07:28:35;;;;;;;22.83;10.20;;;;;;;;;;4966859;28;20411;-60
2022/11/24 07:31:07;;;;;;;21.88;10.00;;;;;;;;;;4966754;28;20368;-60
2022/11/24 07:33:33;;;;;;;22.58;9.90;;;;;;;;;;4966616;28;20317;-61
2022/11/24 07:35:59;;;;;;;22.65;9.10;;;;;;;;;;4966214;28;20362;-61
2022/11/24 07:38:25;;;;;;;23.08;9.30;;;;;;;;;;4967224;28;20314;-60
2022/11/24 07:40:50;;;;;;;16.27;8.85;;;;;;;;;;4967477;28;20418;-60
2022/11/24 07:43:16;;;;;;;22.05;11.18;;;;;;;;;;4966731;28;20029;-60
2022/11/24 07:45:41;;;;;;;18.15;9.98;;;;;;;;;;4899479;28;20071;-60
2022/11/24 07:48:07;;;;;;;24.25;11.98;;;;;;;;;;4967145;28;20440;-61
2022/11/24 07:50:32;;;;;;;22.58;11.68;;;;;;;;;;4966247;28;20387;-60
2022/11/24 07:53:04;;;;;;;20.85;10.43;;;;;;;;;;4966859;28;20531;-60
2022/11/24 07:55:29;;;;;;;17.80;8.80;;;;;;;;;;4967526;28;20458;-61
2022/11/24 07:57:59;;;;;;;19.60;8.50;;;;;;;;;;4965312;28;20460;-60
2022/11/24 08:00:26;;;;;;;18.63;9.38;;;;;;;;;;4966259;28;20444;-60
2022/11/24 08:02:51;;;;;;;18.95;9.10;;;;;;;;;;4966265;28;20420;-61
2022/11/24 08:05:17;;;;;;;17.90;9.43;;;;;;;;;;4965976;28;20380;-60
2022/11/24 08:07:42;;;;;;;21.27;10.25;;;;;;;;;;4947970;28;20340;-63
2022/11/24 08:10:08;;;;;;;19.33;10.10;;;;;;;;;;4965574;28;20444;-61
2022/11/24 08:12:33;;;;;;;20.13;10.32;;;;;;;;;;4967140;28;20345;-62
2022/11/24 08:14:59;;;;;;;16.90;9.07;;;;;;;;;;4967348;28;20033;-60
2022/11/24 08:17:24;;;;;;;20.65;9.32;;;;;;;;;;4967292;28;20359;-61
2022/11/24 08:19:50;;;;;;;19.42;9.98;;;;;;;;;;4966958;28;20419;-61
2022/11/24 08:22:15;;;;;;;23.90;10.73;;;;;;;;;;4967879;28;20411;-61
2022/11/24 08:24:45;;;;;;;25.60;11.40;;;;;;;;;;4967659;28;20033;-61
2022/11/24 08:27:12;;;;;;;23.23;11.02;;;;;;;;;;4967192;28;20391;-62
2022/11/24 08:29:38;;;;;;;25.25;11.80;;;;;;;;;;4967108;28;20456;-62
2022/11/24 08:32:04;;;;;;;24.55;11.15;;;;;;;;;;4966967;28;20448;-61
2022/11/24 08:34:29;;;;;;;21.20;10.02;;;;;;;;;;4966640;28;20483;-61
2022/11/24 08:36:55;;;;;;;19.58;10.10;;;;;;;;;;4967734;28;20513;-62
2022/11/24 08:39:20;;;;;;;20.35;10.07;;;;;;;;;;4968131;28;20068;-63
2022/11/24 08:41:46;;;;;;;20.50;10.43;;;;;;;;;;4968394;28;20316;-61
2022/11/24 08:44:14;;;;;;;21.02;10.35;;;;;;;;;;4969550;28;20472;-61
2022/11/24 08:46:40;;;;;;;19.67;10.60;;;;;;;;;;4969581;28;20440;-62
2022/11/24 08:49:06;;;;;;;18.08;9.73;;;;;;;;;;4969415;28;20448;-61
2022/11/24 08:51:31;;;;;;;21.35;10.27;;;;;;;;;;4970705;28;20355;-62
2022/11/24 08:53:59;;;;;;;23.33;10.40;;;;;;;;;;4970297;28;20325;-63
2022/11/24 08:56:27;;;;;;;19.13;9.52;;;;;;;;;;4969705;28;20444;-62
2022/11/24 08:58:54;;;;;;;20.33;10.60;;;;;;;;;;4969474;28;20549;-62
2022/11/24 09:01:21;;;;;;;20.83;11.77;;;;;;;;;;4969193;28;20025;-63
2022/11/24 09:03:48;;;;;;;21.63;11.27;;;;;;;;;;4969062;28;20325;-62
2022/11/24 09:06:15;;;;;;;21.40;10.93;;;;;;;;;;4969795;28;20356;-61
2022/11/24 09:08:41;;;;;;;19.25;9.07;;;;;;;;;;4969623;28;20517;-62
2022/11/24 09:11:10;;;;;;;20.77;9.57;;;;;;;;;;4969256;28;20432;-62
2022/11/24 09:13:36;;;;;;;18.33;9.15;;;;;;;;;;4968921;28;20360;-62
2022/11/24 09:16:11;;;;;;;17.08;9.65;;;;;;;;;;4969057;28;20325;-62
2022/11/24 09:18:37;;;;;;;20.80;10.52;;;;;;;;;;4968830;28;20029;-61
2022/11/24 09:21:14;;;;;;;17.70;10.32;;;;;;;;;;4969349;28;20378;-63
2022/11/24 09:23:41;;;;;;;21.10;10.60;;;;;;;;;;4970640;28;20426;-63
2022/11/24 09:26:20;;;;;;;19.17;9.90;;;;;;;;;;4969157;28;20507;-62
2022/11/24 09:28:46;;;;;;;19.67;9.88;;;;;;;;;;4968819;28;20345;-62
2022/11/24 09:31:15;;;;;;;21.20;10.02;;;;;;;;;;4970447;28;20431;-63
2022/11/24 09:33:42;;;;;;;20.33;9.25;;;;;;;;;;4968958;28;20364;-61
2022/11/24 09:36:07;;;;;;;18.23;8.88;;;;;;;;;;4969379;28;20203;-62
2022/11/24 09:38:33;;;;;;;17.65;8.63;;;;;;;;;;4969857;28;20156;-61
2022/11/24 09:41:17;;;;;;;21.95;11.40;;;;;;;;;;4968865;28;20371;-63
2022/11/24 09:44:40;;;;;;;19.83;8.82;;;;;;;;;;4969846;28;20421;-63
2022/11/24 09:47:45;;;;;;;21.77;10.05;;;;;;;;;;4967180;28;20079;-61
2022/11/24 09:50:18;;;;;;;22.33;11.50;;;;;;;;;;4969205;28;20455;-61
2022/11/24 09:53:04;;;;;;;23.08;10.80;;;;;;;;;;4951938;28;20468;-61
2022/11/24 09:55:40;;;;;;;20.83;9.93;;;;;;;;;;4968772;28;20037;-62
2022/11/24 09:58:43;;;;;;;18.65;10.38;;;;;;;;;;4950485;28;20476;-62
2022/11/24 10:01:23;;;;;;;21.08;9.63;;;;;;;;;;4966482;28;20395;-63
2022/11/24 10:03:50;;;;;;;19.10;9.18;;;;;;;;;;4966842;28;20325;-62
2022/11/24 10:06:27;;;;;;;18.58;8.95;;;;;;;;;;4951028;28;20511;-62
2022/11/24 10:09:07;;;;;;;16.58;9.38;;;;;;;;;;4968546;28;20486;-62
2022/11/24 10:11:45;;;;;;;14.18;8.10;;;;;;;;;;4968153;28;20395;-62
2022/11/24 10:14:42;;;;;;;15.27;7.63;;;;;;;;;;4950185;28;20408;-62
2022/11/24 10:17:48;;;;;;;15.75;7.38;;;;;;;;;;4967983;28;20045;-61
2022/11/24 10:21:01;;;;;;;16.35;7.85;;;;;;;;;;4967993;28;20344;-62
2022/11/24 10:23:39;;;;;;;14.00;7.43;;;;;;;;;;4962710;28;20383;-63
2022/11/24 10:26:35;;;;;;;15.82;8.07;;;;;;;;;;4967829;28;20095;-62
2022/11/24 10:29:27;;;;;;;12.52;7.47;;;;;;;;;;4966542;28;20577;-62
2022/11/24 10:31:55;;;;;;;13.70;8.15;;;;;;;;;;4950991;28;20512;-62
2022/11/24 10:34:38;;;;;;;12.63;7.30;;;;;;;;;;4967668;28;20451;-62
2022/11/24 10:37:10;;;;;;;10.35;6.38;;;;;;;;;;4968181;28;20056;-63
2022/11/24 10:40:33;;;;;;;9.07;5.95;;;;;;;;;;4968360;28;20435;-62
2022/11/24 10:42:59;;;;;;;12.77;6.95;;;;;;;;;;4936870;28;20360;-63
2022/11/24 10:45:27;;;;;;;8.73;5.72;;;;;;;;;;4968139;28;20306;-62
2022/11/24 10:47:53;;;;;;;8.68;5.13;;;;;;;;;;4967075;28;20451;-62
2022/11/24 10:50:34;;;;;;;12.40;6.53;;;;;;;;;;4968248;28;20463;-62
2022/11/24 10:53:19;;;;;;;8.48;5.78;;;;;;;;;;4951375;28;20033;-62
2022/11/24 10:55:54;;;;;;;8.82;5.65;;;;;;;;;;4967251;28;20436;-63
2022/11/24 10:58:28;;;;;;;14.00;7.75;;;;;;;;;;4967339;28;20065;-63
2022/11/24 11:00:57;;;;;;;12.30;5.70;;;;;;;;;;4967517;28;20363;-63
2022/11/24 11:03:27;;;;;;;9.77;5.90;;;;;;;;;;4966972;28;20570;-62
2022/11/24 11:05:59;;;;;;;8.02;4.65;;;;;;;;;;4967650;28;20499;-63
2022/11/24 11:08:31;;;;;;;9.15;4.97;;;;;;;;;;4967705;28;20369;-64
2022/11/24 11:11:27;;;;;;;9.85;4.97;;;;;;;;;;4949338;28;20432;-63
2022/11/24 11:13:58;;;;;;;9.35;4.93;;;;;;;;;;4966567;28;20380;-62
2022/11/24 11:16:39;;;;;;;9.50;5.05;;;;;;;;;;4966878;28;20464;-62
2022/11/24 11:19:37;;;;;;;8.13;4.93;;;;;;;;;;4950745;28;20034;-64
2022/11/24 11:22:10;;;;;;;9.55;5.53;;;;;;;;;;4967387;28;20462;-63
2022/11/24 11:24:44;;;;;;;9.90;5.55;;;;;;;;;;4966828;28;20525;-62
2022/11/24 11:27:26;;;;;;;8.27;5.10;;;;;;;;;;4968295;28;20037;-63
2022/11/24 11:29:52;;;;;;;10.43;4.80;;;;;;;;;;4966608;28;20444;-63
2022/11/24 11:32:27;;;;;;;8.40;5.57;;;;;;;;;;4966426;28;20513;-63
2022/11/24 11:34:55;;;;;;;8.52;5.35;;;;;;;;;;4949741;28;20420;-62
2022/11/24 11:37:27;;;;;;;10.37;6.43;;;;;;;;;;4949216;28;20406;-64
2022/11/24 11:39:54;;;;;;;13.50;5.85;;;;;;;;;;4948953;28;20459;-63
2022/11/24 11:42:43;;;;;;;22.48;9.50;;;;;;;;;;4966175;28;20029;-63
2022/11/24 11:45:19;;;;;;;;;;;;;;;;;;4950106;28;20352;-64
2022/11/24 11:47:53;;;;;;;30.75;12.43;;;;;;;;;;4966384;28;20220;-64
2022/11/24 11:50:43;;;;;;;15.18;9.05;;;;;;;;;;4948831;28;20051;-62
2022/11/24 11:53:29;;;;;;;9.98;6.35;;;;;;;;;;4950205;28;20355;-62
2022/11/24 11:56:25;;;;;;;16.55;8.05;;;;;;;;;;4966173;28;20463;-62
2022/11/24 11:59:13;;;;;;;9.88;6.43;;;;;;;;;;4948979;28;20502;-62
2022/11/24 12:02:15;;;;;;;10.63;5.80;;;;;;;;;;4950947;28;20343;-63
2022/11/24 12:04:51;;;;;;;10.13;5.68;;;;;;;;;;4949660;28;20471;-63
2022/11/24 12:07:53;;;;;;;11.23;6.43;;;;;;;;;;4966105;28;20687;-63
2022/11/24 12:10:27;;;;;;;9.60;6.03;;;;;;;;;;4965913;28;20375;-63
2022/11/24 12:13:38;;;;;;;8.98;5.18;;;;;;;;;;4965556;28;20458;-63
2022/11/24 12:16:36;;;;;;;11.82;6.15;;;;;;;;;;4954153;28;20388;-64
2022/11/24 12:19:42;;;;;;;11.60;5.60;;;;;;;;;;4948546;28;20445;-64
2022/11/24 12:22:25;;;;;;;9.45;5.28;;;;;;;;;;4966079;28;20467;-63
2022/11/24 12:25:15;;;;;;;10.13;5.38;;;;;;;;;;4966122;28;20392;-64
2022/11/24 12:27:59;;;;;;;8.50;5.10;;;;;;;;;;4966323;28;20478;-63
2022/11/24 12:30:27;;;;;;;14.27;6.60;;;;;;;;;;4965612;28;20333;-63
2022/11/24 12:33:16;;;;;;;13.65;6.75;;;;;;;;;;4948675;28;20057;-64
2022/11/24 12:35:45;;;;;;;12.85;6.35;;;;;;;;;;4949358;28;20425;-64
2022/11/24 12:38:44;;;;;;;14.60;7.25;;;;;;;;;;4966228;28;20436;-63
2022/11/24 12:41:48;;;;;;;13.45;7.30;;;;;;;;;;4965702;28;20353;-63
2022/11/24 12:44:52;;;;;;;13.90;8.30;;;;;;;;;;4950441;28;20457;-63
2022/11/24 12:47:42;;;;;;;14.02;7.57;;;;;;;;;;4951792;28;20463;-63
2022/11/24 12:50:22;;;;;;;8.82;5.90;;;;;;;;;;4950979;28;20440;-62
2022/11/24 12:53:17;;;;;;;11.30;6.45;;;;;;;;;;4948359;28;20398;-63
2022/11/24 12:55:44;;;;;;;9.52;6.40;;;;;;;;;;4966571;28;20326;-63
2022/11/24 12:58:30;;;;;;;13.35;6.68;;;;;;;;;;4969364;28;20353;-63
2022/11/24 13:01:27;;;;;;;14.70;7.25;;;;;;;;;;4969464;28;20387;-63
2022/11/24 13:04:04;;;;;;;21.75;9.02;;;;;;;;;;4953712;28;20038;-64
2022/11/24 13:06:39;;;;;;;13.15;7.00;;;;;;;;;;4969279;28;20443;-63
2022/11/24 13:09:12;;;;;;;10.73;6.65;;;;;;;;;;4969245;28;20641;-62
2022/11/24 13:11:49;;;;;;;9.90;6.78;;;;;;;;;;4968840;28;20057;-63
2022/11/24 13:14:22;;;;;;;9.57;6.53;;;;;;;;;;4970501;28;20484;-65
2022/11/24 13:17:02;;;;;;;12.45;7.95;;;;;;;;;;4970483;28;20096;-63
2022/11/24 13:19:34;;;;;;;18.58;9.23;;;;;;;;;;4969660;28;20397;-63
2022/11/24 13:22:14;;;;;;;14.05;7.43;;;;;;;;;;4971053;28;20029;-62
2022/11/24 13:24:40;;;;;;;10.55;6.43;;;;;;;;;;4968704;28;20451;-63
2022/11/24 13:27:12;;;;;;;8.70;5.85;;;;;;;;;;4968868;28;20343;-63
2022/11/24 13:29:43;;;;;;;9.90;6.07;;;;;;;;;;4969480;28;20033;-62
2022/11/24 13:32:10;;;;;;;8.82;5.35;;;;;;;;;;4951830;28;20049;-63
2022/11/24 13:34:41;;;;;;;10.25;5.20;;;;;;;;;;4968753;28;20432;-63
2022/11/24 13:37:22;;;;;;;13.27;7.00;;;;;;;;;;4968551;28;20322;-63
2022/11/24 13:39:57;;;;;;;11.73;7.00;;;;;;;;;;4968277;28;20041;-63
2022/11/24 13:42:28;;;;;;;13.20;7.20;;;;;;;;;;4968108;28;20511;-64
2022/11/24 13:45:02;;;;;;;9.10;5.72;;;;;;;;;;4951211;28;20487;-63
2022/11/24 13:47:41;;;;;;;11.48;6.30;;;;;;;;;;4968698;28;20041;-63
2022/11/24 13:50:19;;;;;;;14.45;7.82;;;;;;;;;;4950937;28;20395;-64
2022/11/24 13:53:09;;;;;;;21.67;12.37;;;;;;;;;;4950461;28;20448;-62
2022/11/24 13:55:39;;;;;;;13.70;7.18;;;;;;;;;;4970049;28;20376;-62
2022/11/24 13:58:07;;;;;;;17.35;8.32;;;;;;;;;;4968091;28;20076;-63
2022/11/24 14:00:56;;;;;;;61.28;25.65;;;;;;;;;;4968490;28;20056;-62
2022/11/24 14:03:53;;;;;;;16.90;9.93;;;;;;;;;;4953681;28;20447;-63
2022/11/24 14:06:30;;;;;;;8.95;5.90;;;;;;;;;;4967648;28;20360;-62
2022/11/24 14:09:05;;;;;;;9.90;6.45;;;;;;;;;;4967175;28;20437;-64
2022/11/24 14:11:31;;;;;;;10.68;6.53;;;;;;;;;;4950538;28;20371;-63
2022/11/24 14:13:56;;;;;;;8.20;5.00;;;;;;;;;;4968063;28;20060;-63
2022/11/24 14:16:23;;;;;;;8.32;5.72;;;;;;;;;;4968095;28;20545;-63
2022/11/24 14:18:50;;;;;;;11.23;7.10;;;;;;;;;;4968051;28;20045;-64
2022/11/24 14:21:19;;;;;;;12.75;6.78;;;;;;;;;;4967942;28;20371;-63
2022/11/24 14:23:51;;;;;;;16.03;6.97;;;;;;;;;;4967767;28;20460;-63
2022/11/24 14:26:32;;;;;;;13.32;8.07;;;;;;;;;;4968611;28;20379;-63
2022/11/24 14:29:12;;;;;;;13.95;8.13;;;;;;;;;;4968171;28;20463;-64
2022/11/24 14:31:37;;;;;;;13.70;7.13;;;;;;;;;;4968176;28;20355;-64
2022/11/24 14:34:18;;;;;;;13.90;8.75;;;;;;;;;;4967810;28;20340;-63
2022/11/24 14:36:43;;;;;;;12.48;7.22;;;;;;;;;;4967407;28;20345;-63
2022/11/24 14:39:24;;;;;;;14.50;7.78;;;;;;;;;;4968679;28;20372;-63
2022/11/24 14:42:16;;;;;;;12.60;8.00;;;;;;;;;;4967306;28;20436;-63
2022/11/24 14:44:47;;;;;;;12.13;6.97;;;;;;;;;;4964234;28;20340;-63
2022/11/24 14:47:21;;;;;;;19.50;11.25;;;;;;;;;;4968843;28;20057;-63
2022/11/24 14:49:47;;;;;;;11.88;8.00;;;;;;;;;;4967335;28;20455;-62
2022/11/24 14:52:17;;;;;;;12.57;7.82;;;;;;;;;;4967262;28;20493;-62
2022/11/24 14:54:55;;;;;;;33.10;15.25;;;;;;;;;;4949654;28;20459;-62